sensor_id;sensor_type;location;lat;lon;timestamp;P1;durP1;ratioP1;P2;durP2;ratioP2
1877;SDS011;939;51.426;6.972;2023-06-22T00:01:19;3.33;;;2.33;;
1877;SDS011;939;51.426;6.972;2023-06-22T00:03:47;3.83;;;3.20;;
1877;SDS011;939;51.426;6.972;2023-06-22T00:06:15;3.50;;;2.40;;
1877;SDS011;939;51.426;6.972;2023-06-22T00:08:42;2.30;;;1.87;;
1877;SDS011;939;51.426;6.972;2023-06-22T00:11:09;4.03;;;2.87;;
1877;SDS011;939;51.426;6.972;2023-06-22T00:13:37;1.97;;;1.80;;
1877;SDS011;939;51.426;6.972;2023-06-22T00:16:04;3.80;;;2.87;;
1877;SDS011;939;51.426;6.972;2023-06-22T00:18:31;6.73;;;2.40;;
1877;SDS011;939;51.426;6.972;2023-06-22T00:20:58;2.50;;;1.80;;
1877;SDS011;939;51.426;6.972;2023-06-22T00:23:27;2.50;;;2.30;;
1877;SDS011;939;51.426;6.972;2023-06-22T00:25:59;3.30;;;2.60;;
1877;SDS011;939;51.426;6.972;2023-06-22T00:28:25;4.13;;;2.80;;
1877;SDS011;939;51.426;6.972;2023-06-22T00:30:54;5.60;;;2.93;;
1877;SDS011;939;51.426;6.972;2023-06-22T00:33:22;2.30;;;1.80;;
1877;SDS011;939;51.426;6.972;2023-06-22T00:35:55;2.27;;;2.00;;
1877;SDS011;939;51.426;6.972;2023-06-22T00:38:21;3.50;;;2.73;;
1877;SDS011;939;51.426;6.972;2023-06-22T00:40:50;8.43;;;3.63;;
1877;SDS011;939;51.426;6.972;2023-06-22T00:43:19;2.97;;;1.93;;
1877;SDS011;939;51.426;6.972;2023-06-22T00:46:05;3.00;;;2.23;;
1877;SDS011;939;51.426;6.972;2023-06-22T00:48:44;4.73;;;2.07;;
1877;SDS011;939;51.426;6.972;2023-06-22T00:51:22;9.07;;;2.37;;
1877;SDS011;939;51.426;6.972;2023-06-22T00:53:49;2.47;;;2.17;;
1877;SDS011;939;51.426;6.972;2023-06-22T00:56:19;2.50;;;1.77;;
1877;SDS011;939;51.426;6.972;2023-06-22T00:58:49;8.20;;;2.40;;
1877;SDS011;939;51.426;6.972;2023-06-22T01:01:23;3.43;;;2.10;;
1877;SDS011;939;51.426;6.972;2023-06-22T01:03:52;3.93;;;2.63;;
1877;SDS011;939;51.426;6.972;2023-06-22T01:06:26;8.63;;;3.03;;
1877;SDS011;939;51.426;6.972;2023-06-22T01:09:06;5.03;;;2.83;;
1877;SDS011;939;51.426;6.972;2023-06-22T01:11:44;5.93;;;3.37;;
1877;SDS011;939;51.426;6.972;2023-06-22T01:14:18;5.63;;;2.93;;
1877;SDS011;939;51.426;6.972;2023-06-22T01:16:49;4.23;;;2.70;;
1877;SDS011;939;51.426;6.972;2023-06-22T01:19:29;5.57;;;2.97;;
1877;SDS011;939;51.426;6.972;2023-06-22T01:22:04;3.60;;;3.30;;
1877;SDS011;939;51.426;6.972;2023-06-22T01:24:40;3.67;;;2.67;;
1877;SDS011;939;51.426;6.972;2023-06-22T01:27:17;5.23;;;2.67;;
1877;SDS011;939;51.426;6.972;2023-06-22T01:29:55;4.80;;;3.17;;
1877;SDS011;939;51.426;6.972;2023-06-22T01:32:25;4.70;;;3.20;;
1877;SDS011;939;51.426;6.972;2023-06-22T01:34:58;4.73;;;3.40;;
1877;SDS011;939;51.426;6.972;2023-06-22T01:37:27;4.20;;;3.50;;
1877;SDS011;939;51.426;6.972;2023-06-22T01:40:24;5.50;;;3.60;;
1877;SDS011;939;51.426;6.972;2023-06-22T01:42:52;7.30;;;3.93;;
1877;SDS011;939;51.426;6.972;2023-06-22T01:45:22;4.60;;;3.53;;
1877;SDS011;939;51.426;6.972;2023-06-22T01:54:25;5.07;;;3.27;;
1877;SDS011;939;51.426;6.972;2023-06-22T01:56:59;10.00;;;4.10;;
1877;SDS011;939;51.426;6.972;2023-06-22T01:59:37;5.17;;;3.63;;
1877;SDS011;939;51.426;6.972;2023-06-22T02:02:14;7.70;;;4.17;;
1877;SDS011;939;51.426;6.972;2023-06-22T02:04:46;7.87;;;3.30;;
1877;SDS011;939;51.426;6.972;2023-06-22T02:07:41;6.40;;;5.00;;
1877;SDS011;939;51.426;6.972;2023-06-22T02:10:14;5.57;;;3.10;;
1877;SDS011;939;51.426;6.972;2023-06-22T02:13:01;5.20;;;4.10;;
1877;SDS011;939;51.426;6.972;2023-06-22T02:15:30;3.90;;;3.07;;
1877;SDS011;939;51.426;6.972;2023-06-22T02:17:59;3.90;;;3.33;;
1877;SDS011;939;51.426;6.972;2023-06-22T02:20:26;5.03;;;2.60;;
1877;SDS011;939;51.426;6.972;2023-06-22T02:22:53;5.60;;;4.67;;
1877;SDS011;939;51.426;6.972;2023-06-22T02:25:19;4.73;;;4.30;;
1877;SDS011;939;51.426;6.972;2023-06-22T02:27:46;4.80;;;3.53;;
1877;SDS011;939;51.426;6.972;2023-06-22T02:30:13;10.10;;;3.93;;
1877;SDS011;939;51.426;6.972;2023-06-22T02:32:42;5.67;;;4.43;;
1877;SDS011;939;51.426;6.972;2023-06-22T02:35:10;3.40;;;2.90;;
1877;SDS011;939;51.426;6.972;2023-06-22T02:37:37;5.47;;;4.33;;
1877;SDS011;939;51.426;6.972;2023-06-22T02:40:07;5.80;;;4.00;;
1877;SDS011;939;51.426;6.972;2023-06-22T02:42:35;5.73;;;4.47;;
1877;SDS011;939;51.426;6.972;2023-06-22T02:45:02;3.90;;;2.83;;
1877;SDS011;939;51.426;6.972;2023-06-22T02:47:32;5.83;;;4.27;;
1877;SDS011;939;51.426;6.972;2023-06-22T02:49:59;7.40;;;4.27;;
1877;SDS011;939;51.426;6.972;2023-06-22T02:52:27;5.90;;;4.23;;
1877;SDS011;939;51.426;6.972;2023-06-22T02:54:54;10.90;;;4.47;;
1877;SDS011;939;51.426;6.972;2023-06-22T02:57:21;5.07;;;4.00;;
1877;SDS011;939;51.426;6.972;2023-06-22T02:59:47;6.17;;;4.17;;
1877;SDS011;939;51.426;6.972;2023-06-22T03:02:14;4.50;;;3.50;;
1877;SDS011;939;51.426;6.972;2023-06-22T03:04:41;6.80;;;3.20;;
1877;SDS011;939;51.426;6.972;2023-06-22T03:07:08;5.40;;;3.70;;
1877;SDS011;939;51.426;6.972;2023-06-22T03:09:39;7.57;;;5.37;;
1877;SDS011;939;51.426;6.972;2023-06-22T03:12:11;5.60;;;3.87;;
1877;SDS011;939;51.426;6.972;2023-06-22T03:14:39;7.30;;;4.33;;
1877;SDS011;939;51.426;6.972;2023-06-22T03:17:08;11.17;;;5.00;;
1877;SDS011;939;51.426;6.972;2023-06-22T03:19:36;8.43;;;4.87;;
1877;SDS011;939;51.426;6.972;2023-06-22T03:22:03;5.43;;;4.80;;
1877;SDS011;939;51.426;6.972;2023-06-22T03:24:30;9.53;;;6.07;;
1877;SDS011;939;51.426;6.972;2023-06-22T03:27:01;8.03;;;4.97;;
1877;SDS011;939;51.426;6.972;2023-06-22T03:29:31;5.13;;;3.90;;
1877;SDS011;939;51.426;6.972;2023-06-22T03:32:16;11.97;;;5.97;;
1877;SDS011;939;51.426;6.972;2023-06-22T03:34:43;16.50;;;5.33;;
1877;SDS011;939;51.426;6.972;2023-06-22T03:37:11;5.60;;;5.10;;
1877;SDS011;939;51.426;6.972;2023-06-22T03:39:39;7.90;;;4.57;;
1877;SDS011;939;51.426;6.972;2023-06-22T03:42:08;6.90;;;4.87;;
1877;SDS011;939;51.426;6.972;2023-06-22T03:44:36;8.33;;;5.00;;
1877;SDS011;939;51.426;6.972;2023-06-22T03:47:03;8.03;;;5.20;;
1877;SDS011;939;51.426;6.972;2023-06-22T03:49:34;5.37;;;3.90;;
1877;SDS011;939;51.426;6.972;2023-06-22T03:52:02;8.23;;;5.67;;
1877;SDS011;939;51.426;6.972;2023-06-22T03:54:29;5.43;;;4.30;;
1877;SDS011;939;51.426;6.972;2023-06-22T03:56:57;9.63;;;6.50;;
1877;SDS011;939;51.426;6.972;2023-06-22T03:59:26;9.37;;;6.20;;
1877;SDS011;939;51.426;6.972;2023-06-22T04:01:53;7.17;;;5.30;;
1877;SDS011;939;51.426;6.972;2023-06-22T04:04:20;15.63;;;6.17;;
1877;SDS011;939;51.426;6.972;2023-06-22T04:06:47;8.83;;;5.23;;
1877;SDS011;939;51.426;6.972;2023-06-22T04:09:13;11.50;;;6.93;;
1877;SDS011;939;51.426;6.972;2023-06-22T04:11:40;7.70;;;4.73;;
1877;SDS011;939;51.426;6.972;2023-06-22T04:14:07;7.97;;;4.57;;
1877;SDS011;939;51.426;6.972;2023-06-22T04:16:35;7.67;;;5.60;;
1877;SDS011;939;51.426;6.972;2023-06-22T04:19:02;16.33;;;3.67;;
1877;SDS011;939;51.426;6.972;2023-06-22T04:21:31;4.03;;;3.57;;
1877;SDS011;939;51.426;6.972;2023-06-22T04:24:14;9.83;;;6.00;;
1877;SDS011;939;51.426;6.972;2023-06-22T04:26:47;10.03;;;4.77;;
1877;SDS011;939;51.426;6.972;2023-06-22T04:29:15;12.20;;;6.87;;
1877;SDS011;939;51.426;6.972;2023-06-22T04:31:43;7.13;;;5.87;;
1877;SDS011;939;51.426;6.972;2023-06-22T04:34:13;10.53;;;7.13;;
1877;SDS011;939;51.426;6.972;2023-06-22T04:36:41;10.90;;;5.43;;
1877;SDS011;939;51.426;6.972;2023-06-22T04:39:09;8.00;;;6.43;;
1877;SDS011;939;51.426;6.972;2023-06-22T04:41:37;8.30;;;5.53;;
1877;SDS011;939;51.426;6.972;2023-06-22T04:44:10;5.80;;;3.87;;
1877;SDS011;939;51.426;6.972;2023-06-22T04:46:38;12.90;;;6.90;;
1877;SDS011;939;51.426;6.972;2023-06-22T04:49:08;6.47;;;5.03;;
1877;SDS011;939;51.426;6.972;2023-06-22T04:51:39;5.73;;;3.83;;
1877;SDS011;939;51.426;6.972;2023-06-22T04:54:07;6.50;;;5.00;;
1877;SDS011;939;51.426;6.972;2023-06-22T04:56:35;9.03;;;5.90;;
1877;SDS011;939;51.426;6.972;2023-06-22T04:59:02;8.20;;;5.50;;
1877;SDS011;939;51.426;6.972;2023-06-22T05:01:29;7.20;;;6.20;;
1877;SDS011;939;51.426;6.972;2023-06-22T05:03:57;10.43;;;6.20;;
1877;SDS011;939;51.426;6.972;2023-06-22T05:06:27;9.13;;;6.30;;
1877;SDS011;939;51.426;6.972;2023-06-22T05:08:54;6.60;;;4.00;;
1877;SDS011;939;51.426;6.972;2023-06-22T05:11:23;7.70;;;6.90;;
1877;SDS011;939;51.426;6.972;2023-06-22T05:13:51;11.37;;;6.40;;
1877;SDS011;939;51.426;6.972;2023-06-22T05:16:18;10.57;;;7.30;;
1877;SDS011;939;51.426;6.972;2023-06-22T05:18:49;11.30;;;6.87;;
1877;SDS011;939;51.426;6.972;2023-06-22T05:21:18;9.53;;;6.33;;
1877;SDS011;939;51.426;6.972;2023-06-22T05:23:48;8.60;;;6.20;;
1877;SDS011;939;51.426;6.972;2023-06-22T05:26:15;15.87;;;7.67;;
1877;SDS011;939;51.426;6.972;2023-06-22T05:28:42;16.63;;;6.33;;
1877;SDS011;939;51.426;6.972;2023-06-22T05:31:10;10.73;;;6.10;;
1877;SDS011;939;51.426;6.972;2023-06-22T05:33:39;10.70;;;7.30;;
1877;SDS011;939;51.426;6.972;2023-06-22T05:36:06;10.67;;;6.60;;
1877;SDS011;939;51.426;6.972;2023-06-22T05:38:34;13.90;;;8.00;;
1877;SDS011;939;51.426;6.972;2023-06-22T05:47:01;15.60;;;8.27;;
1877;SDS011;939;51.426;6.972;2023-06-22T05:49:28;10.07;;;7.37;;
1877;SDS011;939;51.426;6.972;2023-06-22T05:54:28;9.97;;;7.50;;
1877;SDS011;939;51.426;6.972;2023-06-22T05:57:00;11.40;;;7.40;;
1877;SDS011;939;51.426;6.972;2023-06-22T05:59:28;8.87;;;6.63;;
1877;SDS011;939;51.426;6.972;2023-06-22T06:01:56;11.80;;;9.23;;
1877;SDS011;939;51.426;6.972;2023-06-22T06:04:28;10.90;;;7.13;;
1877;SDS011;939;51.426;6.972;2023-06-22T06:06:56;11.07;;;9.43;;
1877;SDS011;939;51.426;6.972;2023-06-22T06:09:23;11.10;;;8.60;;
1877;SDS011;939;51.426;6.972;2023-06-22T06:11:50;12.73;;;9.40;;
1877;SDS011;939;51.426;6.972;2023-06-22T06:14:17;11.73;;;8.87;;
1877;SDS011;939;51.426;6.972;2023-06-22T06:16:45;13.90;;;7.63;;
1877;SDS011;939;51.426;6.972;2023-06-22T06:19:13;12.73;;;9.10;;
1877;SDS011;939;51.426;6.972;2023-06-22T06:21:40;16.60;;;9.83;;
1877;SDS011;939;51.426;6.972;2023-06-22T06:24:07;12.87;;;8.97;;
1877;SDS011;939;51.426;6.972;2023-06-22T06:26:34;9.27;;;7.57;;
1877;SDS011;939;51.426;6.972;2023-06-22T06:29:02;11.27;;;7.80;;
1877;SDS011;939;51.426;6.972;2023-06-22T06:31:29;12.13;;;6.73;;
1877;SDS011;939;51.426;6.972;2023-06-22T06:33:55;9.37;;;7.50;;
1877;SDS011;939;51.426;6.972;2023-06-22T06:36:24;24.17;;;9.53;;
1877;SDS011;939;51.426;6.972;2023-06-22T06:38:51;10.13;;;7.50;;
1877;SDS011;939;51.426;6.972;2023-06-22T06:41:18;13.77;;;8.70;;
1877;SDS011;939;51.426;6.972;2023-06-22T06:43:46;11.27;;;9.50;;
1877;SDS011;939;51.426;6.972;2023-06-22T06:46:13;15.47;;;8.07;;
1877;SDS011;939;51.426;6.972;2023-06-22T06:48:40;13.60;;;8.50;;
1877;SDS011;939;51.426;6.972;2023-06-22T06:51:07;10.07;;;7.70;;
1877;SDS011;939;51.426;6.972;2023-06-22T06:53:37;10.43;;;8.23;;
1877;SDS011;939;51.426;6.972;2023-06-22T06:56:04;14.90;;;8.00;;
1877;SDS011;939;51.426;6.972;2023-06-22T06:58:35;10.43;;;8.20;;
1877;SDS011;939;51.426;6.972;2023-06-22T07:01:14;10.97;;;7.83;;
1877;SDS011;939;51.426;6.972;2023-06-22T07:04:10;16.60;;;9.63;;
1877;SDS011;939;51.426;6.972;2023-06-22T07:07:00;10.93;;;8.30;;
1877;SDS011;939;51.426;6.972;2023-06-22T07:10:11;10.17;;;7.90;;
1877;SDS011;939;51.426;6.972;2023-06-22T07:12:51;10.60;;;8.07;;
1877;SDS011;939;51.426;6.972;2023-06-22T07:16:12;12.20;;;9.60;;
1877;SDS011;939;51.426;6.972;2023-06-22T07:18:30;16.63;;;8.63;;
1877;SDS011;939;51.426;6.972;2023-06-22T07:20:57;18.50;;;11.60;;
1877;SDS011;939;51.426;6.972;2023-06-22T07:23:28;16.73;;;8.67;;
1877;SDS011;939;51.426;6.972;2023-06-22T07:26:02;27.53;;;9.97;;
1877;SDS011;939;51.426;6.972;2023-06-22T07:28:33;13.67;;;10.00;;
1877;SDS011;939;51.426;6.972;2023-06-22T07:31:02;12.43;;;8.73;;
1877;SDS011;939;51.426;6.972;2023-06-22T07:33:30;14.23;;;11.27;;
1877;SDS011;939;51.426;6.972;2023-06-22T07:35:56;14.00;;;10.53;;
1877;SDS011;939;51.426;6.972;2023-06-22T07:38:23;12.37;;;9.53;;
1877;SDS011;939;51.426;6.972;2023-06-22T07:40:50;13.17;;;8.70;;
1877;SDS011;939;51.426;6.972;2023-06-22T07:43:19;18.97;;;11.20;;
1877;SDS011;939;51.426;6.972;2023-06-22T07:45:48;13.43;;;8.70;;
1877;SDS011;939;51.426;6.972;2023-06-22T07:48:19;19.13;;;9.00;;
1877;SDS011;939;51.426;6.972;2023-06-22T07:50:48;15.40;;;11.03;;
1877;SDS011;939;51.426;6.972;2023-06-22T07:53:16;10.23;;;7.83;;
1877;SDS011;939;51.426;6.972;2023-06-22T07:55:45;10.40;;;9.07;;
1877;SDS011;939;51.426;6.972;2023-06-22T07:58:16;16.80;;;10.57;;
1877;SDS011;939;51.426;6.972;2023-06-22T08:00:48;8.50;;;6.10;;
1877;SDS011;939;51.426;6.972;2023-06-22T08:03:17;17.70;;;10.63;;
1877;SDS011;939;51.426;6.972;2023-06-22T08:05:44;14.33;;;9.50;;
1877;SDS011;939;51.426;6.972;2023-06-22T08:08:14;12.40;;;9.63;;
1877;SDS011;939;51.426;6.972;2023-06-22T08:10:42;13.43;;;9.60;;
1877;SDS011;939;51.426;6.972;2023-06-22T08:13:09;12.10;;;9.80;;
1877;SDS011;939;51.426;6.972;2023-06-22T08:15:37;16.17;;;10.20;;
1877;SDS011;939;51.426;6.972;2023-06-22T08:18:05;11.93;;;9.67;;
1877;SDS011;939;51.426;6.972;2023-06-22T08:20:33;11.77;;;10.10;;
1877;SDS011;939;51.426;6.972;2023-06-22T08:23:00;14.93;;;10.20;;
1877;SDS011;939;51.426;6.972;2023-06-22T08:25:31;17.67;;;10.77;;
1877;SDS011;939;51.426;6.972;2023-06-22T08:28:04;15.30;;;9.87;;
1877;SDS011;939;51.426;6.972;2023-06-22T08:30:34;10.97;;;8.07;;
1877;SDS011;939;51.426;6.972;2023-06-22T08:33:09;18.53;;;10.87;;
1877;SDS011;939;51.426;6.972;2023-06-22T08:35:38;13.00;;;9.20;;
1877;SDS011;939;51.426;6.972;2023-06-22T08:38:05;15.47;;;9.60;;
1877;SDS011;939;51.426;6.972;2023-06-22T08:40:33;17.93;;;11.30;;
1877;SDS011;939;51.426;6.972;2023-06-22T08:43:01;19.97;;;9.97;;
1877;SDS011;939;51.426;6.972;2023-06-22T08:45:29;11.60;;;9.87;;
1877;SDS011;939;51.426;6.972;2023-06-22T08:47:58;12.30;;;9.97;;
1877;SDS011;939;51.426;6.972;2023-06-22T08:50:27;11.03;;;7.43;;
1877;SDS011;939;51.426;6.972;2023-06-22T08:52:55;16.83;;;11.77;;
1877;SDS011;939;51.426;6.972;2023-06-22T08:55:27;16.70;;;11.40;;
1877;SDS011;939;51.426;6.972;2023-06-22T08:57:54;13.03;;;10.43;;
1877;SDS011;939;51.426;6.972;2023-06-22T09:00:21;12.33;;;7.20;;
1877;SDS011;939;51.426;6.972;2023-06-22T09:02:48;14.07;;;9.67;;
1877;SDS011;939;51.426;6.972;2023-06-22T09:05:17;18.10;;;10.60;;
1877;SDS011;939;51.426;6.972;2023-06-22T09:07:46;17.07;;;11.53;;
1877;SDS011;939;51.426;6.972;2023-06-22T09:10:19;14.23;;;11.93;;
1877;SDS011;939;51.426;6.972;2023-06-22T09:12:46;13.23;;;9.50;;
1877;SDS011;939;51.426;6.972;2023-06-22T09:15:13;14.77;;;10.40;;
1877;SDS011;939;51.426;6.972;2023-06-22T09:17:40;9.27;;;7.13;;
1877;SDS011;939;51.426;6.972;2023-06-22T09:20:08;9.67;;;7.50;;
1877;SDS011;939;51.426;6.972;2023-06-22T09:22:38;7.10;;;5.80;;
1877;SDS011;939;51.426;6.972;2023-06-22T09:25:12;7.27;;;5.80;;
1877;SDS011;939;51.426;6.972;2023-06-22T09:27:45;13.27;;;8.50;;
1877;SDS011;939;51.426;6.972;2023-06-22T09:30:20;5.73;;;3.90;;
1877;SDS011;939;51.426;6.972;2023-06-22T09:32:49;5.27;;;3.60;;
1877;SDS011;939;51.426;6.972;2023-06-22T19:02:57;12.53;;;10.10;;
1877;SDS011;939;51.426;6.972;2023-06-22T19:05:36;18.30;;;12.33;;
1877;SDS011;939;51.426;6.972;2023-06-22T19:08:05;12.20;;;9.93;;
1877;SDS011;939;51.426;6.972;2023-06-22T19:10:38;10.00;;;8.33;;
1877;SDS011;939;51.426;6.972;2023-06-22T19:13:20;13.70;;;9.63;;
1877;SDS011;939;51.426;6.972;2023-06-22T19:15:54;14.33;;;9.23;;
1877;SDS011;939;51.426;6.972;2023-06-22T19:18:28;14.83;;;10.80;;
1877;SDS011;939;51.426;6.972;2023-06-22T19:20:59;11.00;;;9.33;;
1877;SDS011;939;51.426;6.972;2023-06-22T19:23:30;9.87;;;8.30;;
1877;SDS011;939;51.426;6.972;2023-06-22T19:26:00;10.10;;;7.90;;
1877;SDS011;939;51.426;6.972;2023-06-22T19:28:33;12.80;;;8.37;;
1877;SDS011;939;51.426;6.972;2023-06-22T19:31:03;9.80;;;7.00;;
1877;SDS011;939;51.426;6.972;2023-06-22T19:33:36;9.53;;;5.87;;
1877;SDS011;939;51.426;6.972;2023-06-22T19:36:11;10.60;;;5.63;;
1877;SDS011;939;51.426;6.972;2023-06-22T19:38:58;6.43;;;5.00;;
1877;SDS011;939;51.426;6.972;2023-06-22T19:41:26;4.37;;;3.97;;
1877;SDS011;939;51.426;6.972;2023-06-22T19:43:57;6.80;;;4.97;;
1877;SDS011;939;51.426;6.972;2023-06-22T19:46:34;4.20;;;2.90;;
1877;SDS011;939;51.426;6.972;2023-06-22T19:49:02;10.30;;;3.40;;
1877;SDS011;939;51.426;6.972;2023-06-22T19:51:32;4.63;;;2.63;;
1877;SDS011;939;51.426;6.972;2023-06-22T19:54:17;4.00;;;3.20;;
1877;SDS011;939;51.426;6.972;2023-06-22T19:56:44;3.73;;;3.17;;
1877;SDS011;939;51.426;6.972;2023-06-22T19:59:14;4.80;;;3.50;;
1877;SDS011;939;51.426;6.972;2023-06-22T20:01:59;4.83;;;3.00;;
1877;SDS011;939;51.426;6.972;2023-06-22T20:04:27;9.43;;;3.93;;
1877;SDS011;939;51.426;6.972;2023-06-22T20:07:09;4.43;;;3.37;;
1877;SDS011;939;51.426;6.972;2023-06-22T20:09:36;4.70;;;3.67;;
1877;SDS011;939;51.426;6.972;2023-06-22T20:12:12;4.40;;;3.00;;
1877;SDS011;939;51.426;6.972;2023-06-22T20:14:52;3.93;;;3.30;;
1877;SDS011;939;51.426;6.972;2023-06-22T20:17:22;8.97;;;3.73;;
1877;SDS011;939;51.426;6.972;2023-06-22T20:20:04;4.27;;;2.77;;
1877;SDS011;939;51.426;6.972;2023-06-22T20:22:50;7.57;;;4.77;;
1877;SDS011;939;51.426;6.972;2023-06-22T20:25:24;5.40;;;3.57;;
1877;SDS011;939;51.426;6.972;2023-06-22T20:28:07;9.00;;;4.70;;
1877;SDS011;939;51.426;6.972;2023-06-22T20:33:32;5.53;;;4.57;;
1877;SDS011;939;51.426;6.972;2023-06-22T20:36:06;13.17;;;5.70;;
1877;SDS011;939;51.426;6.972;2023-06-22T20:39:04;6.90;;;5.10;;
1877;SDS011;939;51.426;6.972;2023-06-22T20:41:45;5.50;;;3.77;;
1877;SDS011;939;51.426;6.972;2023-06-22T20:47:38;12.07;;;4.47;;
1877;SDS011;939;51.426;6.972;2023-06-22T20:57:32;3.37;;;2.80;;
